Time;durP1;ratioP1;P1;durP2;ratioP2;P2;SDS_P1;SDS_P2;PMS_P1;PMS_P2;Temp;Humidity;BMP_temperature;BMP_pressure;BME280_temperature;BME280_humidity;BME280_pressure;Samples;Min_cycle;Max_cycle;Signal;HPM_P1;HPM_P2
2021/01/02 00:02:02;;;;;;;8.35;7.25;;;5.30;99.90;;;;;;5073203;28;20191;-43
2021/01/02 00:04:57;;;;;;;9.45;7.32;;;5.40;99.90;;;;;;5072978;28;20653;-44
2021/01/02 00:07:52;;;;;;;9.00;7.25;;;5.40;99.90;;;;;;5070660;28;20623;-44
2021/01/02 00:10:24;;;;;;;11.00;8.50;;;5.10;99.90;;;;;;5073434;28;20187;-45
2021/01/02 00:13:05;;;;;;;11.00;7.45;;;5.20;99.90;;;;;;5072980;28;20742;-45
2021/01/02 00:15:36;;;;;;;10.02;7.95;;;5.20;99.90;;;;;;5073085;28;20245;-45
2021/01/02 00:18:11;;;;;;;8.15;6.30;;;5.60;99.90;;;;;;5073188;28;20223;-45
2021/01/02 00:21:02;;;;;;;9.70;7.78;;;5.50;99.90;;;;;;5073084;28;20297;-45
2021/01/02 00:24:08;;;;;;;9.88;7.25;;;5.50;99.90;;;;;;5072683;28;20285;-44
2021/01/02 00:26:43;;;;;;;11.65;8.45;;;5.50;99.90;;;;;;5072649;28;20273;-45
2021/01/02 00:29:17;;;;;;;9.60;8.20;;;5.10;99.90;;;;;;5073808;28;20245;-43
2021/01/02 00:32:09;;;;;;;9.70;7.50;;;5.40;99.90;;;;;;5073412;28;20199;-46
2021/01/02 00:34:52;;;;;;;13.18;7.88;;;5.20;99.90;;;;;;5072649;28;20440;-47
2021/01/02 00:37:27;;;;;;;9.70;7.90;;;5.10;99.90;;;;;;5072850;28;20257;-47
2021/01/02 00:40:11;;;;;;;7.95;6.82;;;5.10;99.90;;;;;;5072859;28;20520;-46
2021/01/02 00:42:40;;;;;;;9.32;7.53;;;5.20;99.90;;;;;;5071914;28;20191;-45
2021/01/02 00:45:09;;;;;;;9.80;7.72;;;5.20;99.90;;;;;;5072906;28;20199;-46
2021/01/02 00:47:37;;;;;;;8.43;7.18;;;5.30;99.90;;;;;;5072722;28;20187;-47
2021/01/02 00:50:07;;;;;;;13.18;7.18;;;5.40;99.90;;;;;;5073063;28;20229;-46
2021/01/02 00:52:59;;;;;;;8.38;6.57;;;5.10;99.90;;;;;;5072668;28;20187;-46
2021/01/02 00:55:46;;;;;;;8.52;7.10;;;5.20;99.90;;;;;;5071942;28;20252;-47
2021/01/02 00:58:23;;;;;;;7.47;6.40;;;5.20;99.90;;;;;;5071519;28;20230;-47
2021/01/02 01:01:02;;;;;;;8.38;6.28;;;5.20;99.90;;;;;;5071455;28;20233;-44
2021/01/02 01:03:52;;;;;;;9.98;7.22;;;5.30;99.90;;;;;;5070943;28;20199;-46
2021/01/02 01:06:22;;;;;;;8.40;7.03;;;5.30;99.90;;;;;;5072802;28;20191;-46
2021/01/02 01:08:54;;;;;;;7.60;6.30;;;5.30;99.90;;;;;;5072996;28;20294;-47
2021/01/02 01:11:22;;;;;;;8.95;6.50;;;5.20;99.90;;;;;;5072734;28;20191;-46
2021/01/02 01:13:54;;;;;;;6.80;5.90;;;5.10;99.90;;;;;;5072911;28;20195;-48
2021/01/02 01:16:25;;;;;;;9.75;6.90;;;5.10;99.90;;;;;;5072400;28;20203;-45
2021/01/02 01:18:58;;;;;;;8.98;6.05;;;4.80;99.90;;;;;;5071922;28;20262;-47
2021/01/02 01:21:29;;;;;;;8.07;6.03;;;5.00;99.90;;;;;;5070904;28;20290;-45
2021/01/02 01:24:08;;;;;;;8.45;6.40;;;5.00;99.90;;;;;;5071769;28;20203;-45
2021/01/02 01:26:50;;;;;;;7.28;5.72;;;4.80;99.90;;;;;;5072005;28;20282;-46
2021/01/02 01:29:22;;;;;;;8.32;6.00;;;4.70;99.90;;;;;;5072082;28;20211;-46
2021/01/02 01:31:56;;;;;;;7.75;6.10;;;4.90;99.90;;;;;;5071981;28;20202;-47
2021/01/02 01:34:24;;;;;;;10.27;5.68;;;5.10;99.90;;;;;;5071905;28;20187;-46
2021/01/02 01:36:52;;;;;;;7.03;5.82;;;4.80;99.90;;;;;;5071986;28;20799;-45
2021/01/02 01:39:22;;;;;;;6.47;5.63;;;4.90;99.90;;;;;;5071755;28;20219;-45
2021/01/02 01:41:54;;;;;;;7.20;5.70;;;5.00;99.90;;;;;;5071737;28;20650;-46
2021/01/02 01:44:43;;;;;;;6.20;5.25;;;4.80;99.90;;;;;;5071564;28;20381;-45
2021/01/02 01:47:18;;;;;;;6.15;5.55;;;4.60;99.90;;;;;;5071930;28;20328;-46
2021/01/02 01:50:30;;;;;;;7.80;5.85;;;4.70;99.90;;;;;;5071819;28;20269;-46
2021/01/02 01:53:50;;;;;;;6.75;5.30;;;4.70;99.90;;;;;;5071303;28;20676;-46
2021/01/02 01:56:29;;;;;;;7.90;5.85;;;4.60;99.90;;;;;;5072474;28;20251;-41
2021/01/02 01:59:28;;;;;;;6.15;5.32;;;4.40;99.90;;;;;;5075385;28;20669;-42
2021/01/02 02:01:57;;;;;;;6.63;4.90;;;4.40;99.90;;;;;;5075601;28;20661;-42
2021/01/02 02:04:58;;;;;;;6.60;5.55;;;4.30;99.90;;;;;;5075277;28;20191;-44
2021/01/02 02:07:41;;;;;;;5.82;4.75;;;4.50;99.90;;;;;;5076040;28;20191;-46
2021/01/02 02:10:10;;;;;;;7.00;5.47;;;4.40;99.90;;;;;;5076179;28;20667;-45
2021/01/02 02:12:50;;;;;;;4.72;4.05;;;4.20;99.90;;;;;;5076356;28;20202;-45
2021/01/02 02:15:20;;;;;;;6.78;5.40;;;4.10;99.90;;;;;;5076004;28;20216;-46
2021/01/02 02:17:47;;;;;;;5.63;4.50;;;4.30;99.90;;;;;;5075800;28;20668;-46
2021/01/02 02:20:17;;;;;;;6.28;5.07;;;4.20;99.90;;;;;;5074819;28;20223;-45
2021/01/02 02:22:44;;;;;;;5.85;5.13;;;4.40;99.90;;;;;;5075293;28;20215;-47
2021/01/02 02:25:13;;;;;;;9.85;5.50;;;4.40;99.90;;;;;;5075287;28;20187;-46
2021/01/02 02:27:42;;;;;;;5.32;4.70;;;4.40;99.90;;;;;;5075085;28;20199;-46
2021/01/02 02:30:14;;;;;;;6.95;5.25;;;4.20;99.90;;;;;;5075076;28;20272;-44
2021/01/02 02:32:43;;;;;;;5.60;5.00;;;4.50;99.90;;;;;;5074943;28;20226;-45
2021/01/02 02:35:15;;;;;;;7.10;5.80;;;4.20;99.90;;;;;;5075127;28;20678;-46
2021/01/02 02:37:45;;;;;;;7.05;6.18;;;4.30;99.90;;;;;;5074944;28;20229;-42
2021/01/02 02:40:17;;;;;;;8.40;6.15;;;4.50;99.90;;;;;;5075013;28;20316;-47
2021/01/02 02:42:50;;;;;;;7.95;6.63;;;4.20;99.90;;;;;;5074547;28;20230;-46
2021/01/02 02:45:19;;;;;;;7.90;6.47;;;4.30;99.90;;;;;;5074836;28;20199;-47
2021/01/02 02:47:47;;;;;;;7.78;6.95;;;4.10;99.90;;;;;;5074624;28;20191;-47
2021/01/02 02:50:23;;;;;;;9.77;6.30;;;4.20;99.90;;;;;;5074696;28;20240;-47
2021/01/02 02:53:01;;;;;;;10.05;6.25;;;4.00;99.90;;;;;;5074443;28;20202;-47
2021/01/02 02:55:28;;;;;;;8.52;6.70;;;4.20;99.90;;;;;;5074636;28;20220;-46
2021/01/02 02:57:56;;;;;;;12.65;8.40;;;4.00;99.90;;;;;;5074570;28;20310;-46
2021/01/02 03:00:23;;;;;;;12.20;8.93;;;4.30;99.90;;;;;;5074433;28;20298;-45
2021/01/02 03:02:49;;;;;;;10.65;8.00;;;4.10;99.90;;;;;;5074217;28;20198;-44
2021/01/02 03:05:18;;;;;;;12.45;9.40;;;4.10;99.90;;;;;;5074442;28;20195;-46
2021/01/02 03:07:47;;;;;;;10.98;9.07;;;4.30;99.90;;;;;;5073829;28;20198;-47
2021/01/02 03:10:16;;;;;;;12.35;8.98;;;4.00;99.90;;;;;;5074326;28;20218;-46
2021/01/02 03:12:44;;;;;;;12.32;9.30;;;3.90;99.90;;;;;;5074211;28;20578;-46
2021/01/02 03:15:13;;;;;;;15.52;9.55;;;4.10;99.90;;;;;;5073556;28;20203;-45
2021/01/02 03:17:41;;;;;;;14.45;10.10;;;4.00;99.90;;;;;;5072694;28;20200;-46
2021/01/02 03:20:09;;;;;;;12.93;10.80;;;4.20;99.90;;;;;;5087466;22;20241;-47
2021/01/02 03:22:36;;;;;;;15.75;10.40;;;4.10;99.90;;;;;;5073022;28;20192;-48
2021/01/02 03:25:02;;;;;;;16.83;11.90;;;4.00;99.90;;;;;;5073224;28;20233;-45
2021/01/02 03:27:29;;;;;;;16.70;12.15;;;4.10;99.90;;;;;;5073407;28;20215;-48
2021/01/02 03:29:55;;;;;;;19.17;12.25;;;4.00;99.90;;;;;;5071826;28;20691;-46
2021/01/02 03:32:23;;;;;;;18.80;12.52;;;3.90;99.90;;;;;;5072990;28;20187;-48
2021/01/02 03:34:49;;;;;;;17.88;12.95;;;4.10;99.90;;;;;;5072226;28;20616;-48
2021/01/02 03:37:16;;;;;;;17.45;11.98;;;4.00;99.90;;;;;;5072520;28;20196;-50
2021/01/02 03:39:42;;;;;;;19.27;13.05;;;3.80;99.90;;;;;;5072785;28;20279;-50
2021/01/02 03:42:09;;;;;;;22.65;15.10;;;4.00;99.90;;;;;;5073038;28;20191;-50
2021/01/02 03:44:35;;;;;;;24.85;16.17;;;3.90;99.90;;;;;;5072554;28;20195;-45
2021/01/02 03:47:09;;;;;;;18.70;14.57;;;4.10;99.90;;;;;;5072886;28;20240;-49
2021/01/02 03:49:37;;;;;;;22.23;15.55;;;3.90;99.90;;;;;;5072722;28;20208;-48
2021/01/02 03:52:05;;;;;;;24.08;16.30;;;4.00;99.90;;;;;;5072987;28;20245;-49
2021/01/02 03:54:31;;;;;;;22.48;15.20;;;3.50;99.90;;;;;;5072421;28;20277;-48
2021/01/02 03:56:58;;;;;;;24.65;17.02;;;4.20;99.90;;;;;;5072552;28;20286;-48
2021/01/02 03:59:24;;;;;;;21.67;15.73;;;4.20;99.90;;;;;;5072297;28;20671;-46
2021/01/02 04:01:54;;;;;;;21.52;14.57;;;4.10;99.90;;;;;;5072368;28;20256;-49
2021/01/02 04:04:21;;;;;;;21.95;16.15;;;4.10;99.90;;;;;;5072128;28;20191;-48
2021/01/02 04:06:50;;;;;;;22.02;15.70;;;4.20;99.90;;;;;;5072392;28;20528;-48
2021/01/02 04:09:17;;;;;;;20.80;15.60;;;4.00;99.90;;;;;;5072342;28;20246;-48
2021/01/02 04:11:46;;;;;;;22.23;15.13;;;4.10;99.90;;;;;;5072592;28;20646;-49
2021/01/02 04:14:13;;;;;;;25.17;16.58;;;4.00;99.90;;;;;;5072362;28;20199;-48
2021/01/02 04:16:41;;;;;;;23.42;16.13;;;4.10;99.90;;;;;;5072200;28;20265;-49
2021/01/02 04:19:08;;;;;;;26.05;16.65;;;4.10;99.90;;;;;;5071152;28;20247;-47
2021/01/02 04:21:35;;;;;;;21.98;16.15;;;4.30;99.90;;;;;;5070792;28;20199;-48
2021/01/02 04:24:03;;;;;;;20.58;16.60;;;4.10;99.90;;;;;;5070450;28;20207;-48
2021/01/02 04:26:30;;;;;;;20.52;15.20;;;4.00;99.90;;;;;;5070615;28;20199;-50
2021/01/02 04:28:57;;;;;;;20.85;15.55;;;4.20;99.90;;;;;;5071928;28;20223;-48
2021/01/02 04:31:35;;;;;;;22.67;16.38;;;4.20;99.90;;;;;;5072036;28;20568;-49
2021/01/02 04:34:02;;;;;;;23.02;14.75;;;3.90;99.90;;;;;;5071626;28;20260;-48
2021/01/02 04:36:29;;;;;;;21.23;16.10;;;4.00;99.90;;;;;;5072047;28;20687;-47
2021/01/02 04:38:55;;;;;;;20.05;15.63;;;4.10;99.90;;;;;;5071828;28;20198;-48
2021/01/02 04:41:23;;;;;;;23.33;15.23;;;4.60;99.90;;;;;;5071757;28;20583;-47
2021/01/02 04:43:51;;;;;;;21.38;15.50;;;3.90;99.90;;;;;;5071282;28;20314;-48
2021/01/02 04:46:18;;;;;;;20.05;14.10;;;4.10;99.90;;;;;;5071765;28;20203;-46
2021/01/02 04:48:46;;;;;;;18.17;14.27;;;4.20;99.90;;;;;;5071533;28;20188;-48
2021/01/02 04:51:14;;;;;;;19.73;14.27;;;4.20;99.90;;;;;;5071465;28;20730;-49
2021/01/02 04:53:41;;;;;;;19.02;13.43;;;4.10;99.90;;;;;;5071451;28;20722;-48
2021/01/02 04:56:08;;;;;;;18.42;14.52;;;3.90;99.90;;;;;;5070308;28;20199;-48
2021/01/02 04:58:39;;;;;;;18.73;14.85;;;4.00;99.90;;;;;;5071368;28;20248;-49
2021/01/02 05:01:07;;;;;;;19.42;14.65;;;4.10;99.90;;;;;;5071324;28;20210;-48
2021/01/02 05:03:34;;;;;;;18.80;13.75;;;4.30;99.90;;;;;;5070926;28;20222;-48
2021/01/02 05:06:02;;;;;;;18.33;13.85;;;4.00;99.90;;;;;;5071672;28;20192;-48
2021/01/02 05:08:29;;;;;;;16.13;11.98;;;4.30;99.90;;;;;;5071493;28;20191;-49
2021/01/02 05:10:57;;;;;;;16.95;12.98;;;4.50;99.90;;;;;;5071686;28;20654;-49
2021/01/02 05:13:29;;;;;;;17.80;11.98;;;3.60;99.90;;;;;;5070893;28;20226;-50
2021/01/02 05:16:00;;;;;;;17.38;12.40;;;4.10;99.90;;;;;;5071537;28;20686;-48
2021/01/02 05:18:27;;;;;;;16.02;11.90;;;4.40;99.90;;;;;;5071367;28;20191;-50
2021/01/02 05:21:06;;;;;;;15.43;11.90;;;4.30;99.90;;;;;;5070984;28;20238;-50
2021/01/02 05:23:33;;;;;;;15.65;12.32;;;4.40;99.90;;;;;;5071158;28;20198;-50
2021/01/02 05:26:08;;;;;;;13.98;11.57;;;4.50;99.90;;;;;;5071240;28;20298;-50
2021/01/02 05:28:34;;;;;;;16.05;12.65;;;4.70;99.90;;;;;;5071269;28;20339;-48
2021/01/02 05:31:11;;;;;;;14.38;12.00;;;4.30;99.90;;;;;;5071348;28;20733;-48
2021/01/02 05:33:37;;;;;;;16.95;12.80;;;4.50;99.90;;;;;;5069896;28;20198;-50
2021/01/02 05:36:04;;;;;;;16.02;12.70;;;4.70;99.90;;;;;;5070173;28;20294;-49
2021/01/02 05:38:31;;;;;;;18.20;12.25;;;4.60;99.90;;;;;;5070972;28;20214;-46
2021/01/02 05:40:59;;;;;;;14.18;11.95;;;4.50;99.90;;;;;;5071063;28;20212;-49
2021/01/02 05:43:28;;;;;;;13.35;11.48;;;4.70;99.90;;;;;;5070437;28;20611;-48
2021/01/02 05:45:55;;;;;;;17.27;12.52;;;4.40;99.90;;;;;;5070910;28;20206;-48
2021/01/02 05:48:24;;;;;;;14.27;11.40;;;4.50;99.90;;;;;;5070826;28;20195;-50
2021/01/02 05:50:53;;;;;;;18.55;12.38;;;4.70;99.90;;;;;;5070900;28;20231;-50
2021/01/02 05:53:21;;;;;;;15.05;11.18;;;4.50;99.90;;;;;;5070674;28;20557;-48
2021/01/02 05:55:56;;;;;;;16.23;12.45;;;4.40;99.90;;;;;;5070643;28;20214;-49
2021/01/02 05:58:22;;;;;;;16.55;12.30;;;3.80;99.90;;;;;;5070761;28;20190;-48
2021/01/02 06:00:49;;;;;;;17.30;13.20;;;4.30;99.90;;;;;;5070622;28;20257;-48
2021/01/02 06:03:26;;;;;;;14.85;11.55;;;4.30;99.90;;;;;;5070593;28;20199;-47
2021/01/02 06:06:01;;;;;;;15.43;11.90;;;4.30;99.90;;;;;;5070610;28;20195;-46
2021/01/02 06:08:32;;;;;;;16.02;11.98;;;4.30;99.90;;;;;;5069294;28;20198;-48
2021/01/02 06:11:01;;;;;;;17.02;13.32;;;4.30;99.90;;;;;;5070770;28;20223;-48
2021/01/02 06:13:29;;;;;;;15.70;11.15;;;4.40;99.90;;;;;;5070293;28;20195;-50
2021/01/02 06:16:02;;;;;;;16.85;13.18;;;4.10;99.90;;;;;;5070524;28;20277;-51
2021/01/02 06:18:32;;;;;;;13.55;10.65;;;4.30;99.90;;;;;;5070616;28;20199;-47
2021/01/02 06:21:01;;;;;;;17.38;11.60;;;4.30;99.90;;;;;;5070324;28;20292;-47
2021/01/02 06:23:28;;;;;;;14.80;11.88;;;4.30;99.90;;;;;;5070104;28;20571;-48
2021/01/02 06:25:55;;;;;;;15.50;11.88;;;4.40;99.90;;;;;;5070727;28;20200;-49
2021/01/02 06:28:25;;;;;;;17.00;11.88;;;4.50;99.90;;;;;;5070590;28;20660;-49
2021/01/02 06:30:59;;;;;;;17.50;11.73;;;4.30;99.90;;;;;;5069113;28;20223;-48
2021/01/02 06:33:27;;;;;;;17.20;12.73;;;4.30;99.90;;;;;;5070027;28;20234;-49
2021/01/02 06:35:54;;;;;;;17.98;12.13;;;4.30;99.90;;;;;;5070168;28;20612;-47
2021/01/02 06:38:22;;;;;;;15.55;12.25;;;4.20;99.90;;;;;;5070611;28;20664;-47
2021/01/02 06:40:50;;;;;;;18.88;13.10;;;4.40;99.90;;;;;;5070502;28;20327;-47
2021/01/02 06:43:18;;;;;;;15.10;12.20;;;4.20;99.90;;;;;;5073879;28;20286;-48
2021/01/02 06:45:53;;;;;;;14.85;12.18;;;4.30;99.90;;;;;;5073805;28;20195;-47
2021/01/02 06:48:42;;;;;;;15.93;12.25;;;4.50;99.90;;;;;;5073959;28;20195;-48
2021/01/02 06:51:32;;;;;;;16.55;11.38;;;4.30;99.90;;;;;;5073973;28;20655;-48
2021/01/02 06:54:00;;;;;;;14.82;10.98;;;4.30;99.90;;;;;;5073567;28;20695;-49
2021/01/02 06:56:32;;;;;;;15.60;12.02;;;4.20;99.90;;;;;;5073895;28;20605;-47
2021/01/02 06:58:58;;;;;;;14.77;10.90;;;4.30;99.90;;;;;;5073672;28;20225;-49
2021/01/02 07:01:38;;;;;;;14.73;12.18;;;4.40;99.90;;;;;;5073766;28;20211;-47
2021/01/02 07:04:04;;;;;;;14.70;11.02;;;4.20;99.90;;;;;;5073168;28;20215;-48
2021/01/02 07:06:40;;;;;;;15.23;11.50;;;4.50;99.90;;;;;;5073552;28;20191;-49
2021/01/02 07:09:21;;;;;;;17.25;12.70;;;4.50;99.90;;;;;;5073519;28;20215;-49
2021/01/02 07:11:48;;;;;;;14.85;11.48;;;4.60;99.90;;;;;;5073299;28;20621;-49
2021/01/02 07:14:23;;;;;;;16.02;12.25;;;4.60;99.90;;;;;;5073344;28;20199;-49
2021/01/02 07:16:52;;;;;;;18.25;13.73;;;4.50;99.90;;;;;;5073451;28;20221;-49
2021/01/02 07:19:44;;;;;;;20.15;12.95;;;4.40;99.90;;;;;;5073074;28;20632;-49
2021/01/02 07:22:21;;;;;;;16.92;12.95;;;4.70;99.90;;;;;;5063404;28;20211;-49
2021/01/02 07:24:49;;;;;;;21.33;14.57;;;4.80;99.90;;;;;;5073251;28;20613;-49
2021/01/02 07:27:17;;;;;;;22.13;15.23;;;4.50;99.90;;;;;;5073232;28;20222;-49
2021/01/02 07:29:44;;;;;;;25.27;15.43;;;4.50;99.90;;;;;;5073172;28;20210;-49
2021/01/02 07:32:13;;;;;;;17.25;11.68;;;4.60;99.90;;;;;;5073137;28;20196;-49
2021/01/02 07:34:41;;;;;;;26.45;15.35;;;4.60;99.90;;;;;;5073050;28;20682;-49
2021/01/02 07:37:09;;;;;;;21.00;14.30;;;4.50;99.90;;;;;;5073250;28;20603;-48
2021/01/02 07:39:37;;;;;;;21.15;12.68;;;4.60;99.90;;;;;;5072846;28;20207;-49
2021/01/02 07:42:09;;;;;;;17.92;12.75;;;4.40;99.90;;;;;;5073653;28;20223;-47
2021/01/02 07:44:37;;;;;;;20.50;14.68;;;4.50;99.90;;;;;;5072526;28;20210;-48
2021/01/02 07:47:04;;;;;;;17.40;13.60;;;4.60;99.90;;;;;;5072826;28;20207;-49
2021/01/02 07:49:31;;;;;;;18.38;14.02;;;4.60;99.90;;;;;;5072969;28;20223;-49
2021/01/02 07:51:57;;;;;;;19.27;14.40;;;4.50;99.90;;;;;;5072364;28;20195;-49
2021/01/02 07:54:35;;;;;;;17.30;14.05;;;4.50;99.90;;;;;;5071364;28;20194;-50
2021/01/02 07:57:05;;;;;;;20.80;14.35;;;4.90;99.90;;;;;;5072536;28;20202;-49
2021/01/02 07:59:32;;;;;;;17.02;12.85;;;4.60;99.90;;;;;;5072575;28;20344;-49
2021/01/02 08:02:00;;;;;;;16.88;13.20;;;4.60;99.90;;;;;;5072475;28;20272;-45
2021/01/02 08:04:28;;;;;;;21.92;15.35;;;4.60;99.90;;;;;;5072214;28;20195;-49
2021/01/02 08:06:57;;;;;;;21.33;16.95;;;5.00;99.90;;;;;;5072329;28;20668;-49
2021/01/02 08:09:24;;;;;;;19.30;15.52;;;4.60;99.90;;;;;;5072702;28;20551;-48
2021/01/02 08:11:56;;;;;;;23.63;15.48;;;4.70;99.90;;;;;;5072666;28;20202;-49
2021/01/02 08:14:25;;;;;;;20.48;15.63;;;4.50;99.90;;;;;;5072298;28;20664;-50
2021/01/02 08:17:01;;;;;;;24.13;15.30;;;4.70;99.90;;;;;;5072601;28;20203;-49
2021/01/02 08:19:36;;;;;;;20.88;16.27;;;4.30;99.90;;;;;;5072296;28;20690;-48
2021/01/02 08:22:04;;;;;;;26.27;21.13;;;4.20;99.90;;;;;;5072569;28;20215;-49
2021/01/02 08:24:31;;;;;;;20.55;17.35;;;4.20;99.90;;;;;;5071886;28;20312;-48
2021/01/02 08:27:00;;;;;;;24.35;15.80;;;4.50;99.90;;;;;;5071906;28;20191;-50
2021/01/02 08:29:28;;;;;;;17.30;13.82;;;4.40;99.90;;;;;;5071929;28;20299;-49
2021/01/02 08:32:00;;;;;;;20.35;16.80;;;4.40;99.90;;;;;;5071794;28;20199;-49
2021/01/02 08:34:32;;;;;;;22.90;14.43;;;4.10;99.90;;;;;;5071752;28;20187;-48
2021/01/02 08:37:04;;;;;;;15.80;12.45;;;4.40;99.90;;;;;;5071750;28;20213;-48
2021/01/02 08:39:31;;;;;;;17.40;12.90;;;4.40;99.90;;;;;;5071644;28;20222;-47
2021/01/02 08:41:59;;;;;;;20.30;14.68;;;4.50;99.90;;;;;;5071556;28;20206;-47
2021/01/02 08:44:29;;;;;;;19.45;14.05;;;4.60;99.90;;;;;;5071143;28;20199;-49
2021/01/02 08:46:56;;;;;;;16.10;13.35;;;4.50;99.90;;;;;;5072066;28;20219;-48
2021/01/02 08:49:36;;;;;;;20.02;15.00;;;4.80;99.90;;;;;;5071385;28;20664;-45
2021/01/02 08:52:34;;;;;;;19.63;15.35;;;4.60;99.90;;;;;;5071731;28;20202;-48
2021/01/02 08:55:09;;;;;;;16.42;13.30;;;4.60;99.90;;;;;;5071637;28;20372;-46
2021/01/02 08:57:41;;;;;;;19.33;14.38;;;4.50;99.90;;;;;;5071615;28;20190;-48
2021/01/02 09:00:14;;;;;;;17.20;14.18;;;4.70;99.90;;;;;;5071173;28;20307;-49
2021/01/02 09:02:42;;;;;;;16.15;13.32;;;5.00;99.90;;;;;;5071161;28;20215;-48
2021/01/02 09:05:10;;;;;;;18.33;13.50;;;4.10;99.90;;;;;;5070649;28;20231;-49
2021/01/02 09:07:38;;;;;;;17.45;13.80;;;4.60;99.90;;;;;;5071472;28;20191;-48
2021/01/02 09:10:19;;;;;;;16.60;12.57;;;4.60;99.90;;;;;;5071366;28;20537;-46
2021/01/02 09:13:12;;;;;;;21.02;14.43;;;4.70;99.90;;;;;;5070828;28;20616;-47
2021/01/02 09:15:52;;;;;;;20.45;13.95;;;4.90;99.90;;;;;;5071158;28;20547;-46
2021/01/02 09:18:38;;;;;;;16.02;13.00;;;5.10;99.90;;;;;;5069677;28;20207;-46
2021/01/02 09:21:32;;;;;;;17.10;13.10;;;4.90;99.90;;;;;;5094107;22;20427;-42
2021/01/02 09:24:00;;;;;;;17.27;13.65;;;5.30;99.90;;;;;;5072001;28;20250;-45
2021/01/02 09:26:36;;;;;;;19.58;14.82;;;5.20;99.90;;;;;;5072751;28;20190;-43
2021/01/02 09:29:12;;;;;;;19.88;13.88;;;5.40;99.90;;;;;;5071301;28;20558;-44
2021/01/02 09:31:40;;;;;;;18.98;14.68;;;5.50;99.90;;;;;;5072179;28;20220;-44
2021/01/02 09:34:06;;;;;;;19.58;14.73;;;5.40;99.90;;;;;;5071532;28;20261;-43
2021/01/02 09:36:33;;;;;;;24.52;18.55;;;5.40;99.90;;;;;;5070714;28;20206;-45
2021/01/02 09:39:00;;;;;;;17.63;15.07;;;5.70;99.90;;;;;;5071846;28;20191;-46
2021/01/02 09:41:28;;;;;;;21.60;14.23;;;5.20;99.90;;;;;;5070348;28;20219;-45
2021/01/02 09:43:57;;;;;;;18.20;14.38;;;5.50;99.90;;;;;;5071454;28;20998;-46
2021/01/02 09:46:25;;;;;;;18.17;16.00;;;5.50;99.90;;;;;;5071737;28;20199;-43
2021/01/02 09:48:54;;;;;;;21.63;15.30;;;5.50;99.90;;;;;;5071817;28;20196;-43
2021/01/02 09:51:23;;;;;;;18.95;14.35;;;5.80;99.90;;;;;;5071685;28;20702;-46
2021/01/02 09:53:50;;;;;;;19.65;15.63;;;5.80;99.90;;;;;;5071481;28;20196;-44
2021/01/02 09:56:16;;;;;;;19.15;15.82;;;5.70;99.90;;;;;;5072064;28;20549;-46
2021/01/02 09:58:44;;;;;;;21.75;17.23;;;6.00;99.90;;;;;;5071826;28;20202;-44
2021/01/02 10:01:13;;;;;;;27.27;19.40;;;5.80;99.90;;;;;;5071873;28;20356;-52
2021/01/02 10:03:40;;;;;;;22.60;17.83;;;5.60;99.90;;;;;;5071444;28;20569;-44
2021/01/02 10:06:06;;;;;;;20.58;16.55;;;5.50;99.90;;;;;;5071889;28;20215;-46
2021/01/02 10:08:33;;;;;;;21.55;17.48;;;5.70;99.90;;;;;;5072148;28;20192;-45
2021/01/02 10:11:01;;;;;;;20.30;16.55;;;5.50;99.90;;;;;;5071972;28;20215;-46
2021/01/02 10:13:28;;;;;;;19.33;15.48;;;5.70;99.90;;;;;;5069949;28;20207;-48
2021/01/02 10:15:55;;;;;;;18.67;14.20;;;5.70;99.90;;;;;;5071818;28;20233;-46
2021/01/02 10:18:22;;;;;;;17.98;16.00;;;5.60;99.90;;;;;;5075287;28;20195;-45
2021/01/02 10:20:48;;;;;;;18.38;14.45;;;5.50;99.90;;;;;;5075324;28;20653;-45
2021/01/02 10:23:15;;;;;;;17.98;14.20;;;5.70;99.90;;;;;;5075281;28;20222;-47
2021/01/02 10:25:41;;;;;;;17.30;15.40;;;5.60;99.90;;;;;;5075191;28;20199;-46
2021/01/02 10:28:08;;;;;;;19.67;15.63;;;5.60;99.90;;;;;;5073799;28;20211;-47
2021/01/02 10:30:34;;;;;;;18.67;14.43;;;5.60;99.90;;;;;;5074934;28;20441;-47
2021/01/02 10:33:02;;;;;;;22.02;17.30;;;5.90;99.90;;;;;;5074929;28;20597;-49
2021/01/02 10:35:28;;;;;;;22.27;18.98;;;5.90;99.90;;;;;;5075465;28;20218;-44
2021/01/02 10:37:55;;;;;;;20.92;17.20;;;5.50;99.90;;;;;;5075277;28;20187;-43
2021/01/02 10:40:22;;;;;;;21.10;16.70;;;5.70;99.90;;;;;;5075202;28;20211;-46
2021/01/02 10:42:48;;;;;;;22.15;17.38;;;5.80;99.90;;;;;;5074752;28;20652;-46
2021/01/02 10:45:17;;;;;;;21.90;18.40;;;6.10;99.90;;;;;;5075067;28;20191;-45
2021/01/02 10:47:43;;;;;;;20.02;16.88;;;5.80;99.90;;;;;;5075434;28;20790;-47
2021/01/02 10:50:11;;;;;;;20.27;17.10;;;5.90;99.90;;;;;;5075706;28;20687;-49
2021/01/02 10:52:38;;;;;;;21.85;16.60;;;6.00;99.90;;;;;;5074583;28;20430;-48
2021/01/02 10:55:06;;;;;;;24.77;18.57;;;6.30;99.90;;;;;;5075247;28;20211;-45
2021/01/02 10:57:33;;;;;;;26.10;19.90;;;6.10;99.90;;;;;;5075032;28;20515;-46
2021/01/02 10:59:59;;;;;;;24.90;17.60;;;6.30;99.90;;;;;;5074580;28;20464;-45
2021/01/02 11:02:26;;;;;;;22.33;18.43;;;6.20;99.90;;;;;;5075525;28;20840;-47
2021/01/02 11:04:53;;;;;;;21.70;16.23;;;6.40;99.90;;;;;;5075357;28;20446;-46
2021/01/02 11:07:23;;;;;;;23.70;17.47;;;6.30;99.90;;;;;;5075300;28;20430;-46
2021/01/02 11:09:50;;;;;;;25.10;17.73;;;6.30;99.90;;;;;;5074461;28;20802;-45
2021/01/02 11:12:17;;;;;;;23.13;16.75;;;6.10;99.90;;;;;;5074085;28;20404;-46
2021/01/02 11:14:44;;;;;;;22.43;17.07;;;6.00;99.90;;;;;;5074804;28;20191;-47
2021/01/02 11:17:10;;;;;;;21.75;15.77;;;6.20;99.90;;;;;;5074522;28;20921;-48
2021/01/02 11:19:37;;;;;;;23.38;17.88;;;6.00;99.90;;;;;;5074412;28;20233;-48
2021/01/02 11:22:05;;;;;;;20.07;16.20;;;6.30;99.90;;;;;;5074519;28;20238;-45
2021/01/02 11:24:38;;;;;;;26.63;19.47;;;6.30;99.90;;;;;;5074477;28;20978;-47
2021/01/02 11:27:05;;;;;;;26.67;18.50;;;6.30;99.90;;;;;;5072910;28;20528;-44
2021/01/02 11:29:32;;;;;;;22.90;17.33;;;6.30;99.90;;;;;;5074138;28;20464;-49
2021/01/02 11:32:02;;;;;;;23.70;16.90;;;6.30;99.90;;;;;;5075439;28;20452;-47
2021/01/02 11:34:29;;;;;;;24.40;17.13;;;6.20;99.90;;;;;;5075654;28;20475;-46
2021/01/02 11:36:57;;;;;;;20.20;15.50;;;5.90;99.90;;;;;;5075538;28;20433;-47
2021/01/02 11:39:25;;;;;;;25.98;19.38;;;5.90;99.90;;;;;;5075188;28;20457;-45
2021/01/02 11:41:52;;;;;;;21.45;16.65;;;6.20;99.90;;;;;;5075376;28;20227;-44
2021/01/02 11:44:21;;;;;;;22.57;15.90;;;6.20;99.90;;;;;;5073951;28;20690;-43
2021/01/02 11:46:49;;;;;;;21.43;15.40;;;6.40;99.90;;;;;;5073924;28;20517;-46
2021/01/02 11:49:18;;;;;;;24.37;16.10;;;6.40;99.90;;;;;;5074405;28;20440;-46
2021/01/02 11:51:48;;;;;;;20.10;16.53;;;6.60;99.90;;;;;;5073794;28;20434;-47
2021/01/02 11:54:15;;;;;;;21.47;16.00;;;6.40;99.90;;;;;;5073222;28;20445;-46
2021/01/02 11:56:41;;;;;;;22.83;16.27;;;6.60;99.90;;;;;;5073389;28;20444;-46
2021/01/02 11:59:09;;;;;;;21.05;15.80;;;6.70;99.90;;;;;;5073266;28;20938;-44
2021/01/02 12:01:39;;;;;;;19.13;16.10;;;6.70;99.90;;;;;;5073645;28;20289;-46
2021/01/02 12:04:08;;;;;;;18.93;14.67;;;6.70;99.90;;;;;;5072972;28;20422;-47
2021/01/02 12:06:35;;;;;;;21.70;16.70;;;6.70;99.90;;;;;;5073130;28;20798;-45
2021/01/02 12:09:02;;;;;;;21.23;15.63;;;6.70;99.90;;;;;;5073780;28;20426;-45
2021/01/02 12:11:30;;;;;;;23.57;17.00;;;6.80;99.90;;;;;;5073961;28;20442;-47
2021/01/02 12:13:57;;;;;;;21.60;16.23;;;6.90;99.90;;;;;;5073252;28;20438;-47
2021/01/02 12:16:35;;;;;;;21.30;16.00;;;6.90;99.90;;;;;;5073564;28;20464;-46
2021/01/02 12:19:02;;;;;;;21.40;16.00;;;7.10;99.90;;;;;;5072928;28;20431;-46
2021/01/02 12:21:29;;;;;;;19.57;15.20;;;6.80;99.90;;;;;;5073329;28;20480;-46
2021/01/02 12:23:56;;;;;;;22.27;16.57;;;7.10;99.90;;;;;;5073174;28;20416;-45
2021/01/02 12:26:23;;;;;;;22.27;16.90;;;6.80;99.90;;;;;;5073045;28;20431;-44
2021/01/02 12:28:51;;;;;;;19.30;16.17;;;6.90;99.90;;;;;;5071981;28;20489;-45
2021/01/02 12:31:18;;;;;;;22.73;15.33;;;7.10;99.90;;;;;;5072723;28;20791;-43
2021/01/02 12:33:46;;;;;;;23.03;16.80;;;7.10;99.90;;;;;;5072238;28;20485;-47
2021/01/02 12:36:14;;;;;;;24.00;17.97;;;7.20;99.90;;;;;;5072701;28;20454;-46
2021/01/02 12:38:42;;;;;;;22.60;16.70;;;7.00;99.90;;;;;;5071951;28;20736;-44
2021/01/02 12:41:14;;;;;;;26.40;17.77;;;7.10;99.90;;;;;;5072227;28;20558;-45
2021/01/02 12:43:41;;;;;;;23.20;17.87;;;7.20;99.90;;;;;;5072118;28;20520;-45
2021/01/02 12:46:07;;;;;;;24.00;17.80;;;7.10;99.90;;;;;;5072984;28;20870;-50
2021/01/02 12:48:34;;;;;;;21.97;16.40;;;6.80;99.90;;;;;;5073035;28;20397;-45
2021/01/02 12:51:01;;;;;;;26.40;18.00;;;7.00;99.90;;;;;;5072418;28;20486;-46
2021/01/02 12:53:28;;;;;;;24.23;18.57;;;7.20;99.90;;;;;;5072269;28;20400;-44
2021/01/02 12:55:54;;;;;;;21.23;16.60;;;7.20;99.90;;;;;;5071035;28;20499;-47
2021/01/02 12:58:21;;;;;;;23.80;17.83;;;7.10;99.90;;;;;;5073597;28;20883;-41
2021/01/02 13:00:48;;;;;;;25.73;18.23;;;7.10;99.90;;;;;;5073245;28;20667;-47